ADDS METAR Data INFO
IDs: Format: Raw Decoded Include TAF

Data at: 0159 UTC 19 Jul 2018

KRBO 190135Z AUTO 16012KT 10SM CLR 29/24 A2991 RMK AO2 T02900238
KRBO 190115Z AUTO 15012G18KT 10SM CLR 29/24 A2991 RMK AO2 T02940239
KRBO 190055Z AUTO 15014G19KT 10SM CLR 30/24 A2990 RMK AO2 T02990240
KRBO 190035Z AUTO 14012G18KT 10SM CLR 31/24 A2990 RMK AO2 T03050240
KRBO 190015Z AUTO 15014G19KT 10SM CLR 31/24 A2990 RMK AO2 T03120240
KRBO 182355Z AUTO 14015KT 10SM CLR 32/24 A2989 RMK AO2 T03170244 10356 20317
KRBO 182335Z AUTO 15016G20KT 10SM CLR 32/25 A2990 RMK AO2 T03220246
KRBO 182315Z AUTO 13014G18KT 10SM CLR 33/25 A2990 RMK AO2 T03260250
KRBO 182255Z AUTO 13015G20KT 10SM CLR 33/25 A2990 RMK AO2 T03300250
KRBO 182235Z AUTO 13014G18KT 10SM CLR 33/25 A2990 RMK AO2 T03330250
KRBO 182215Z AUTO 13012G18KT 10SM CLR 33/25 A2990 RMK AO2 T03330252
KRBO 182155Z AUTO 13012G19KT 10SM CLR 34/25 A2991 RMK AO2 T03360252
KRBO 182135Z AUTO 14014G17KT 10SM CLR 34/25 A2991 RMK AO2 T03420253
KRBO 182115Z AUTO 14011G15KT 10SM CLR 35/26 A2992 RMK AO2 T03480257
KRBO 182055Z AUTO 13012G18KT 10SM CLR 35/26 A2992 RMK AO2 T03450258
KRBO 182035Z AUTO 14007G14KT 10SM CLR 36/24 A2992 RMK AO2 T03550239
KRBO 182015Z AUTO 17010KT 10SM SCT060 35/24 A2993 RMK AO2 T03530239
KRBO 181955Z AUTO 16008KT 10SM SCT055 36/23 A2994 RMK AO2 T03550225
KRBO 181935Z AUTO 17007KT 10SM SCT055 35/22 A2995 RMK AO2 T03510224
KRBO 181915Z AUTO 18004KT 10SM SCT055 35/23 A2995 RMK AO2 T03460225
KRBO 181855Z AUTO 19005G08KT 10SM SCT055 35/23 A2996 RMK AO2 T03490229
KRBO 181835Z AUTO 17008KT 10SM CLR 35/23 A2997 RMK AO2 T03450227
KRBO 181815Z AUTO 18010KT 10SM CLR 34/23 A2998 RMK AO2 T03410230
KRBO 181755Z AUTO 20005KT 10SM CLR 34/23 A2998 RMK AO2 T03370229 10337 20237
KRBO 181735Z AUTO 18009G15KT 10SM CLR 33/23 A2999 RMK AO2 T03340233
KRBO 181715Z AUTO 17010G15KT 10SM CLR 33/24 A2999 RMK AO2 T03300235
KRBO 181655Z AUTO 19009G14KT 10SM CLR 33/23 A3000 RMK AO2 T03250233
KRBO 181635Z AUTO 18010G15KT 10SM CLR 32/24 A3000 RMK AO2 T03200236
KRBO 181615Z AUTO 18010KT 10SM CLR 32/24 A3001 RMK AO2 T03150237
KRBO 181555Z AUTO 18009KT 10SM CLR 31/23 A3001 RMK AO2 T03100233
KRBO 181535Z AUTO 17011KT 10SM CLR 31/24 A3002 RMK AO2 T03050235
KRBO 181515Z AUTO 19012KT 10SM CLR 30/24 A3002 RMK AO2 T02990240
KRBO 181455Z AUTO 18012G15KT 10SM CLR 30/25 A3002 RMK AO2 T02950245
KRBO 181435Z AUTO 17012KT 10SM SCT014 29/25 A3003 RMK AO2 T02850248
KRBO 181415Z AUTO 18011KT 10SM SCT014 28/25 A3003 RMK AO2 T02800249
KRBO 181355Z AUTO 17010KT 10SM CLR 28/25 A3004 RMK AO2 T02750249
KRBO 181335Z AUTO 17007KT 10SM CLR 27/25 A3004 RMK AO2 T02700248
KRBO 181315Z AUTO 16006KT 7SM CLR 26/25 A3004 RMK AO2 T02620246
KRBO 181255Z AUTO 15006KT 7SM CLR 26/25 A3003 RMK AO2 T02550245
KRBO 181235Z AUTO 15005KT 7SM CLR 25/24 A3003 RMK AO2 T02460240
KRBO 181215Z AUTO 14004KT 7SM CLR 24/24 A3003 RMK AO2 T02420237
KRBO 181155Z AUTO 15005KT 5SM BR SCT014 24/23 A3003 RMK AO2 T02370233 10265 20236
KRBO 181135Z AUTO 14003KT 7SM SCT014 24/23 A3003 RMK AO2 T02370232
KRBO 181115Z AUTO 13003KT 7SM CLR 24/23 A3003 RMK AO2 T02380232
KRBO 181055Z AUTO 15004KT 7SM CLR 24/24 A3003 RMK AO2 T02420236
KRBO 181035Z AUTO 17005KT 7SM CLR 24/24 A3002 RMK AO2 T02440236
KRBO 181015Z AUTO 16005KT 7SM CLR 24/24 A3001 RMK AO2 T02420235
KRBO 180955Z AUTO 16003KT 7SM CLR 25/24 A3002 RMK AO2 T02450236
KRBO 180935Z AUTO 17005KT 7SM CLR 25/24 A3001 RMK AO2 T02450236
KRBO 180915Z AUTO 18004KT 7SM CLR 25/24 A3001 RMK AO2 T02460237
KRBO 180855Z AUTO 18004KT 7SM CLR 25/24 A3002 RMK AO2 T02470239
KRBO 180835Z AUTO 19004KT 7SM CLR 25/24 A3002 RMK AO2 T02500240
KRBO 180815Z AUTO 19004KT 10SM CLR 25/24 A3001 RMK AO2 T02510242
KRBO 180755Z AUTO 19005KT 10SM CLR 25/24 A3001 RMK AO2 T02520242
KRBO 180735Z AUTO 18005KT 10SM CLR 26/24 A3001 RMK AO2 T02550244
KRBO 180715Z AUTO 17004KT 10SM SCT014 26/25 A3001 RMK AO2 T02570245
KRBO 180655Z AUTO 17005KT 10SM SCT014 26/25 A3002 RMK AO2 T02590245
KRBO 180635Z AUTO 17006KT 10SM SCT014 26/25 A3002 RMK AO2 T02610246
KRBO 180615Z AUTO 17008KT 10SM SCT014 26/25 A3002 RMK AO2 T02630246
KRBO 180555Z AUTO 16008KT 10SM CLR 27/25 A3003 RMK AO2 T02650246 10307 20264 403450236
KRBO 180535Z AUTO 16009KT 10SM CLR 27/25 A3002 RMK AO2 T02650246
KRBO 180515Z AUTO 15008KT 10SM CLR 27/25 A3002 RMK AO2 T02660247
KRBO 180455Z AUTO 15008KT 10SM CLR 27/25 A3001 RMK AO2 T02670248
KRBO 180435Z AUTO 15008KT 10SM CLR 27/25 A3001 RMK AO2 T02670250
KRBO 180415Z AUTO 14007KT 10SM CLR 27/25 A3001 RMK AO2 T02680250
KRBO 180355Z AUTO 14008KT 10SM CLR 27/25 A3001 RMK AO2 T02700250
KRBO 180335Z AUTO 14007KT 10SM CLR 27/25 A3002 RMK AO2 T02720250
KRBO 180315Z AUTO 14009KT 10SM CLR 27/25 A3001 RMK AO2 T02730251
KRBO 180255Z AUTO 14007KT 10SM CLR 28/25 A3001 RMK AO2 T02750250
KRBO 180235Z AUTO 14008KT 10SM CLR 28/25 A3000 RMK AO2 T02750248
KRBO 180215Z AUTO 14008KT 10SM CLR 28/25 A3001 RMK AO2 T02770247
KRBO 180155Z AUTO 14010G14KT 10SM CLR 28/25 A3000 RMK AO2 T02810246
KRBO 180135Z AUTO 15013G17KT 10SM CLR 29/25 A2999 RMK AO2 T02850245
KRBO 180115Z AUTO 15012KT 10SM CLR 29/24 A2999 RMK AO2 T02900244
KRBO 180055Z AUTO 14013KT 10SM CLR 30/24 A2999 RMK AO2 T02950242
KRBO 180035Z AUTO 15013G17KT 10SM CLR 30/24 A2999 RMK AO2 T03010242
KRBO 180015Z AUTO 13011G17KT 10SM CLR 31/25 A2999 RMK AO2 T03050248
KRBO 172355Z AUTO 14012G18KT 10SM CLR 31/25 A2999 RMK AO2 T03070247 10345 20307
KRBO 172335Z AUTO 13013G18KT 10SM CLR 31/25 A2999 RMK AO2 T03100250
KRBO 172315Z AUTO 12014G18KT 10SM CLR 31/25 A2999 RMK AO2 T03130251
KRBO 172255Z AUTO 14013G17KT 10SM CLR 32/25 A2999 RMK AO2 T03180252
KRBO 172235Z AUTO 13013G18KT 10SM CLR 32/25 A3000 RMK AO2 T03230253
KRBO 172215Z AUTO 14011G18KT 10SM CLR 33/25 A2999 RMK AO2 T03250254
KRBO 172155Z AUTO 13014KT 10SM SCT037 33/25 A3000 RMK AO2 T03260254
KRBO 172135Z AUTO 14013G17KT 10SM SCT038 33/25 A3000 RMK AO2 T03300252
KRBO 172115Z AUTO 12013G19KT 10SM SCT040 33/25 A3000 RMK AO2 T03270251
KRBO 172055Z AUTO 14010G17KT 10SM SCT042 34/25 A3001 RMK AO2 T03350252
KRBO 172035Z AUTO 13012G15KT 10SM SCT049 33/25 A3001 RMK AO2 T03320251
KRBO 172015Z AUTO 16008KT 10SM SCT049 34/25 A3001 RMK AO2 T03420247
KRBO 171955Z AUTO 14007KT 10SM CLR 34/23 A3002 RMK AO2 T03440225
KRBO 171935Z AUTO 18005KT 10SM CLR 34/22 A3002 RMK AO2 T03430216
KRBO 171915Z AUTO 17006KT 10SM SCT050 33/22 A3003 RMK AO2 T03320224
KRBO 171855Z AUTO 16007KT 10SM CLR 34/22 A3004 RMK AO2 T03390219
KRBO 171835Z AUTO 15005KT 10SM CLR 34/23 A3004 RMK AO2 T03360225
KRBO 171815Z AUTO 16007KT 10SM CLR 33/22 A3004 RMK AO2 T03320220
KRBO 171755Z AUTO 14007KT 10SM CLR 33/22 A3005 RMK AO2 T03300224 10330 20236
KRBO 171735Z AUTO 20004KT 10SM CLR 32/22 A3006 RMK AO2 T03240221
KRBO 171715Z AUTO 14006KT 10SM CLR 32/22 A3006 RMK AO2 T03210223
KRBO 171655Z AUTO 16005KT 10SM CLR 32/23 A3006 RMK AO2 T03190227
KRBO 171635Z AUTO 20006KT 10SM CLR 32/23 A3006 RMK AO2 T03150229
KRBO 171615Z AUTO 18007KT 10SM CLR 31/23 A3006 RMK AO2 T03120228
KRBO 171555Z AUTO 18008KT 10SM CLR 31/23 A3006 RMK AO2 T03080227
KRBO 171535Z AUTO 19008KT 10SM CLR 30/23 A3007 RMK AO2 T03020228
KRBO 171515Z AUTO 19008KT 10SM CLR 30/23 A3007 RMK AO2 T02970231
KRBO 171455Z AUTO 18008KT 10SM CLR 29/24 A3007 RMK AO2 T02910242
KRBO 171435Z AUTO 19009KT 10SM CLR 29/25 A3007 RMK AO2 T02850245
KRBO 171415Z AUTO 19007KT 10SM CLR 28/25 A3007 RMK AO2 T02800248